sensor_id;sensor_type;location;lat;lon;timestamp;pressure;altitude;pressure_sealevel;temperature;humidity
25430;BME280;13360;48.152;-1.788;2022-08-16T00:01:47;101577.50;;;21.73;100.00
25430;BME280;13360;48.152;-1.788;2022-08-16T00:04:13;101566.63;;;21.72;100.00
25430;BME280;13360;48.152;-1.788;2022-08-16T00:06:39;101557.13;;;21.64;100.00
25430;BME280;13360;48.152;-1.788;2022-08-16T00:09:05;101569.44;;;21.47;100.00
25430;BME280;13360;48.152;-1.788;2022-08-16T00:11:31;101585.72;;;21.54;100.00
25430;BME280;13360;48.152;-1.788;2022-08-16T00:13:57;101589.91;;;21.60;100.00
25430;BME280;13360;48.152;-1.788;2022-08-16T00:16:27;101588.28;;;21.59;100.00
25430;BME280;13360;48.152;-1.788;2022-08-16T00:18:53;101589.91;;;21.60;100.00
25430;BME280;13360;48.152;-1.788;2022-08-16T00:21:19;101589.22;;;21.63;100.00
25430;BME280;13360;48.152;-1.788;2022-08-16T00:23:44;101583.59;;;21.63;100.00
25430;BME280;13360;48.152;-1.788;2022-08-16T00:26:10;101577.16;;;21.63;100.00
25430;BME280;13360;48.152;-1.788;2022-08-16T00:28:35;101578.69;;;21.60;100.00
25430;BME280;13360;48.152;-1.788;2022-08-16T00:31:01;101588.63;;;21.57;100.00
25430;BME280;13360;48.152;-1.788;2022-08-16T00:33:27;101608.66;;;21.56;100.00
25430;BME280;13360;48.152;-1.788;2022-08-16T00:35:52;101618.28;;;21.55;100.00
25430;BME280;13360;48.152;-1.788;2022-08-16T00:38:18;101622.25;;;21.54;100.00
25430;BME280;13360;48.152;-1.788;2022-08-16T00:40:47;101621.44;;;21.53;100.00
25430;BME280;13360;48.152;-1.788;2022-08-16T00:46:40;101633.72;;;21.49;100.00
25430;BME280;13360;48.152;-1.788;2022-08-16T00:48:56;101642.63;;;21.51;100.00
25430;BME280;13360;48.152;-1.788;2022-08-16T00:51:23;101645.78;;;21.49;100.00
25430;BME280;13360;48.152;-1.788;2022-08-16T00:53:51;101640.06;;;21.46;100.00
25430;BME280;13360;48.152;-1.788;2022-08-16T00:56:21;101652.47;;;21.45;100.00
25430;BME280;13360;48.152;-1.788;2022-08-16T00:58:48;101655.81;;;21.38;100.00
25430;BME280;13360;48.152;-1.788;2022-08-16T01:01:14;101657.47;;;21.39;100.00
25430;BME280;13360;48.152;-1.788;2022-08-16T01:03:42;101657.47;;;21.39;100.00
25430;BME280;13360;48.152;-1.788;2022-08-16T01:06:10;101675.16;;;21.40;100.00
25430;BME280;13360;48.152;-1.788;2022-08-16T01:08:37;101674.69;;;21.38;100.00
25430;BME280;13360;48.152;-1.788;2022-08-16T01:11:05;101681.47;;;21.37;100.00
25430;BME280;13360;48.152;-1.788;2022-08-16T01:13:33;101681.00;;;21.35;100.00
25430;BME280;13360;48.152;-1.788;2022-08-16T01:16:03;101677.72;;;21.33;100.00
25430;BME280;13360;48.152;-1.788;2022-08-16T01:18:37;101678.06;;;21.31;100.00
25430;BME280;13360;48.152;-1.788;2022-08-16T01:24:20;101669.28;;;21.33;100.00
25430;BME280;13360;48.152;-1.788;2022-08-16T01:26:48;101671.63;;;21.30;100.00
25430;BME280;13360;48.152;-1.788;2022-08-16T01:29:24;101677.94;;;21.27;100.00
25430;BME280;13360;48.152;-1.788;2022-08-16T01:31:50;101684.06;;;21.21;100.00
25430;BME280;13360;48.152;-1.788;2022-08-16T01:34:16;101683.91;;;21.26;100.00
25430;BME280;13360;48.152;-1.788;2022-08-16T01:36:42;101677.47;;;21.25;100.00
25430;BME280;13360;48.152;-1.788;2022-08-16T01:39:11;101686.72;;;21.26;100.00
25430;BME280;13360;48.152;-1.788;2022-08-16T01:41:36;101674.66;;;21.25;100.00
25430;BME280;13360;48.152;-1.788;2022-08-16T01:44:02;101676.81;;;21.20;100.00
25430;BME280;13360;48.152;-1.788;2022-08-16T01:48:58;101697.78;;;21.22;100.00
25430;BME280;13360;48.152;-1.788;2022-08-16T01:51:25;101690.97;;;21.23;100.00
25430;BME280;13360;48.152;-1.788;2022-08-16T01:53:52;101692.16;;;21.22;100.00
25430;BME280;13360;48.152;-1.788;2022-08-16T01:56:19;101693.31;;;21.21;100.00
25430;BME280;13360;48.152;-1.788;2022-08-16T01:58:45;101686.41;;;21.19;100.00
25430;BME280;13360;48.152;-1.788;2022-08-16T02:01:10;101696.47;;;21.20;100.00
25430;BME280;13360;48.152;-1.788;2022-08-16T02:03:36;101705.72;;;21.20;100.00
25430;BME280;13360;48.152;-1.788;2022-08-16T02:06:02;101711.00;;;21.22;100.00
25430;BME280;13360;48.152;-1.788;2022-08-16T02:08:28;101722.25;;;21.22;100.00
25430;BME280;13360;48.152;-1.788;2022-08-16T02:10:53;101720.25;;;21.22;100.00
25430;BME280;13360;48.152;-1.788;2022-08-16T02:13:19;101727.03;;;21.21;100.00
25430;BME280;13360;48.152;-1.788;2022-08-16T02:15:45;101725.75;;;21.19;100.00
25430;BME280;13360;48.152;-1.788;2022-08-16T02:18:12;101729.72;;;21.18;100.00
25430;BME280;13360;48.152;-1.788;2022-08-16T02:20:39;101732.19;;;21.19;100.00
25430;BME280;13360;48.152;-1.788;2022-08-16T02:23:06;101736.97;;;21.19;100.00
25430;BME280;13360;48.152;-1.788;2022-08-16T02:25:31;101749.03;;;21.19;100.00
25430;BME280;13360;48.152;-1.788;2022-08-16T02:27:57;101749.38;;;21.18;100.00
25430;BME280;13360;48.152;-1.788;2022-08-16T02:30:28;101747.41;;;21.18;100.00
25430;BME280;13360;48.152;-1.788;2022-08-16T02:32:54;101760.50;;;21.14;100.00
25430;BME280;13360;48.152;-1.788;2022-08-16T02:35:21;101765.16;;;21.10;100.00
25430;BME280;13360;48.152;-1.788;2022-08-16T02:37:47;101779.56;;;21.09;100.00
25430;BME280;13360;48.152;-1.788;2022-08-16T02:40:15;101789.28;;;21.11;100.00
25430;BME280;13360;48.152;-1.788;2022-08-16T02:42:42;101780.97;;;21.15;100.00
25430;BME280;13360;48.152;-1.788;2022-08-16T02:45:08;101780.84;;;21.11;100.00
25430;BME280;13360;48.152;-1.788;2022-08-16T02:47:34;101784.00;;;21.10;100.00
25430;BME280;13360;48.152;-1.788;2022-08-16T02:50:00;101787.28;;;21.12;100.00
25430;BME280;13360;48.152;-1.788;2022-08-16T02:52:25;101790.09;;;21.12;100.00
25430;BME280;13360;48.152;-1.788;2022-08-16T02:54:50;101785.31;;;21.12;100.00
25430;BME280;13360;48.152;-1.788;2022-08-16T02:57:16;101790.56;;;21.14;100.00
25430;BME280;13360;48.152;-1.788;2022-08-16T02:59:41;101783.19;;;21.09;100.00
25430;BME280;13360;48.152;-1.788;2022-08-16T03:02:08;101773.47;;;21.07;100.00
25430;BME280;13360;48.152;-1.788;2022-08-16T03:04:35;101780.59;;;21.04;100.00
25430;BME280;13360;48.152;-1.788;2022-08-16T03:07:00;101796.63;;;21.04;100.00
25430;BME280;13360;48.152;-1.788;2022-08-16T03:09:26;101806.47;;;20.89;100.00
25430;BME280;13360;48.152;-1.788;2022-08-16T03:11:51;101824.81;;;20.86;100.00
25430;BME280;13360;48.152;-1.788;2022-08-16T03:14:17;101835.91;;;20.83;100.00
25430;BME280;13360;48.152;-1.788;2022-08-16T03:16:42;101846.13;;;20.87;100.00
25430;BME280;13360;48.152;-1.788;2022-08-16T03:19:08;101866.88;;;20.95;100.00
25430;BME280;13360;48.152;-1.788;2022-08-16T03:21:34;101859.06;;;21.00;100.00
25430;BME280;13360;48.152;-1.788;2022-08-16T03:24:00;101854.25;;;21.01;100.00
25430;BME280;13360;48.152;-1.788;2022-08-16T03:26:25;101863.19;;;21.03;100.00
25430;BME280;13360;48.152;-1.788;2022-08-16T03:28:50;101870.47;;;21.04;100.00
25430;BME280;13360;48.152;-1.788;2022-08-16T03:31:16;101874.44;;;21.03;100.00
25430;BME280;13360;48.152;-1.788;2022-08-16T03:33:41;101881.69;;;21.04;100.00
25430;BME280;13360;48.152;-1.788;2022-08-16T03:36:07;101887.63;;;21.02;100.00
25430;BME280;13360;48.152;-1.788;2022-08-16T03:38:33;101891.94;;;21.00;100.00
25430;BME280;13360;48.152;-1.788;2022-08-16T03:40:59;101898.72;;;20.99;100.00
25430;BME280;13360;48.152;-1.788;2022-08-16T03:43:26;101915.56;;;20.99;100.00
25430;BME280;13360;48.152;-1.788;2022-08-16T03:45:53;101919.41;;;20.94;100.00
25430;BME280;13360;48.152;-1.788;2022-08-16T03:48:26;101925.66;;;21.00;100.00
25430;BME280;13360;48.152;-1.788;2022-08-16T03:50:52;101929.63;;;20.99;100.00
25430;BME280;13360;48.152;-1.788;2022-08-16T03:53:18;101917.41;;;20.95;100.00
25430;BME280;13360;48.152;-1.788;2022-08-16T03:55:43;101934.66;;;20.85;100.00
25430;BME280;13360;48.152;-1.788;2022-08-16T03:58:09;101955.28;;;20.89;100.00
25430;BME280;13360;48.152;-1.788;2022-08-16T04:00:34;101969.47;;;20.92;100.00
25430;BME280;13360;48.152;-1.788;2022-08-16T04:03:01;101981.03;;;20.91;100.00
25430;BME280;13360;48.152;-1.788;2022-08-16T04:05:35;101967.97;;;20.95;100.00
25430;BME280;13360;48.152;-1.788;2022-08-16T04:08:02;101981.53;;;20.93;100.00
25430;BME280;13360;48.152;-1.788;2022-08-16T04:10:28;101990.63;;;20.90;100.00
25430;BME280;13360;48.152;-1.788;2022-08-16T04:12:56;101999.19;;;20.93;100.00
25430;BME280;13360;48.152;-1.788;2022-08-16T04:15:22;102005.66;;;20.94;100.00
25430;BME280;13360;48.152;-1.788;2022-08-16T04:17:47;102013.38;;;20.97;100.00
25430;BME280;13360;48.152;-1.788;2022-08-16T04:20:13;102001.00;;;20.98;100.00
25430;BME280;13360;48.152;-1.788;2022-08-16T04:22:40;102003.50;;;20.91;100.00
25430;BME280;13360;48.152;-1.788;2022-08-16T04:25:08;102015.91;;;20.90;100.00
25430;BME280;13360;48.152;-1.788;2022-08-16T04:27:33;102016.44;;;20.83;100.00
25430;BME280;13360;48.152;-1.788;2022-08-16T04:30:00;101999.59;;;20.75;100.00
25430;BME280;13360;48.152;-1.788;2022-08-16T04:32:25;102015.91;;;20.81;100.00
25430;BME280;13360;48.152;-1.788;2022-08-16T04:34:50;102001.59;;;20.74;100.00
25430;BME280;13360;48.152;-1.788;2022-08-16T04:37:16;102002.91;;;20.77;100.00
25430;BME280;13360;48.152;-1.788;2022-08-16T04:39:42;102009.91;;;20.62;100.00
25430;BME280;13360;48.152;-1.788;2022-08-16T04:42:07;102037.13;;;20.61;100.00
25430;BME280;13360;48.152;-1.788;2022-08-16T04:44:32;102036.63;;;20.59;100.00
25430;BME280;13360;48.152;-1.788;2022-08-16T04:46:58;102047.03;;;20.59;100.00
25430;BME280;13360;48.152;-1.788;2022-08-16T04:49:24;102045.88;;;20.60;100.00
25430;BME280;13360;48.152;-1.788;2022-08-16T04:51:50;102061.75;;;20.47;100.00
25430;BME280;13360;48.152;-1.788;2022-08-16T04:54:16;102079.72;;;20.55;100.00
25430;BME280;13360;48.152;-1.788;2022-08-16T04:56:42;102084.53;;;20.54;100.00
25430;BME280;13360;48.152;-1.788;2022-08-16T04:59:07;102098.56;;;20.54;100.00
25430;BME280;13360;48.152;-1.788;2022-08-16T05:01:34;102124.47;;;20.68;100.00
25430;BME280;13360;48.152;-1.788;2022-08-16T05:04:00;102121.84;;;20.55;100.00
25430;BME280;13360;48.152;-1.788;2022-08-16T05:06:26;102131.75;;;20.52;100.00
25430;BME280;13360;48.152;-1.788;2022-08-16T05:08:51;102133.41;;;20.62;100.00
25430;BME280;13360;48.152;-1.788;2022-08-16T05:11:17;102127.94;;;20.65;100.00
25430;BME280;13360;48.152;-1.788;2022-08-16T05:13:44;102138.50;;;20.51;100.00
25430;BME280;13360;48.152;-1.788;2022-08-16T05:16:17;102166.91;;;20.50;100.00
25430;BME280;13360;48.152;-1.788;2022-08-16T05:18:44;102179.47;;;20.44;100.00
25430;BME280;13360;48.152;-1.788;2022-08-16T05:21:09;102199.59;;;20.54;100.00
25430;BME280;13360;48.152;-1.788;2022-08-16T05:23:35;102210.50;;;20.56;100.00
25430;BME280;13360;48.152;-1.788;2022-08-16T05:26:00;102218.75;;;20.52;100.00
25430;BME280;13360;48.152;-1.788;2022-08-16T05:28:26;102236.09;;;20.54;100.00
25430;BME280;13360;48.152;-1.788;2022-08-16T05:30:52;102247.16;;;20.59;100.00
25430;BME280;13360;48.152;-1.788;2022-08-16T05:33:18;102255.91;;;20.58;100.00
25430;BME280;13360;48.152;-1.788;2022-08-16T05:35:45;102249.47;;;20.57;100.00
25430;BME280;13360;48.152;-1.788;2022-08-16T05:38:11;102268.16;;;20.62;100.00
25430;BME280;13360;48.152;-1.788;2022-08-16T05:40:37;102273.91;;;20.57;100.00
25430;BME280;13360;48.152;-1.788;2022-08-16T05:43:02;102274.88;;;20.52;100.00
25430;BME280;13360;48.152;-1.788;2022-08-16T05:45:27;102285.47;;;20.55;100.00
25430;BME280;13360;48.152;-1.788;2022-08-16T05:47:53;102277.19;;;20.50;100.00
25430;BME280;13360;48.152;-1.788;2022-08-16T05:50:18;102295.69;;;20.51;100.00
25430;BME280;13360;48.152;-1.788;2022-08-16T05:52:44;102308.06;;;20.50;100.00
25430;BME280;13360;48.152;-1.788;2022-08-16T05:55:09;102320.69;;;20.39;100.00
25430;BME280;13360;48.152;-1.788;2022-08-16T05:57:34;102350.56;;;20.35;100.00
25430;BME280;13360;48.152;-1.788;2022-08-16T06:00:00;102375.09;;;20.43;100.00
25430;BME280;13360;48.152;-1.788;2022-08-16T06:02:26;102381.69;;;20.47;100.00
25430;BME280;13360;48.152;-1.788;2022-08-16T06:04:55;102381.19;;;20.45;100.00
25430;BME280;13360;48.152;-1.788;2022-08-16T06:07:20;102388.63;;;20.41;100.00
25430;BME280;13360;48.152;-1.788;2022-08-16T06:09:46;102401.69;;;20.54;100.00
25430;BME280;13360;48.152;-1.788;2022-08-16T06:12:11;102394.72;;;20.43;100.00
25430;BME280;13360;48.152;-1.788;2022-08-16T06:14:37;102410.97;;;20.32;100.00
25430;BME280;13360;48.152;-1.788;2022-08-16T06:17:03;102423.81;;;20.25;100.00
25430;BME280;13360;48.152;-1.788;2022-08-16T06:19:28;102454.25;;;20.40;100.00
25430;BME280;13360;48.152;-1.788;2022-08-16T06:21:53;102462.44;;;20.50;100.00
25430;BME280;13360;48.152;-1.788;2022-08-16T06:24:19;102465.09;;;20.55;100.00
25430;BME280;13360;48.152;-1.788;2022-08-16T06:26:44;102464.00;;;20.65;100.00
25430;BME280;13360;48.152;-1.788;2022-08-16T06:29:09;102460.03;;;20.66;100.00
25430;BME280;13360;48.152;-1.788;2022-08-16T06:31:35;102428.47;;;20.60;100.00
25430;BME280;13360;48.152;-1.788;2022-08-16T06:34:00;102428.09;;;20.53;100.00
25430;BME280;13360;48.152;-1.788;2022-08-16T06:36:26;102447.75;;;20.53;100.00
25430;BME280;13360;48.152;-1.788;2022-08-16T06:38:53;102484.44;;;20.57;100.00
25430;BME280;13360;48.152;-1.788;2022-08-16T06:41:18;102477.31;;;20.51;100.00
25430;BME280;13360;48.152;-1.788;2022-08-16T06:43:44;102470.22;;;20.31;100.00
25430;BME280;13360;48.152;-1.788;2022-08-16T06:46:22;102523.81;;;20.21;100.00
25430;BME280;13360;48.152;-1.788;2022-08-16T06:48:47;102577.69;;;20.31;100.00
25430;BME280;13360;48.152;-1.788;2022-08-16T06:51:13;102595.34;;;20.32;100.00
25430;BME280;13360;48.152;-1.788;2022-08-16T06:53:38;102634.00;;;20.35;100.00
25430;BME280;13360;48.152;-1.788;2022-08-16T06:56:07;102651.78;;;20.30;100.00
25430;BME280;13360;48.152;-1.788;2022-08-16T06:58:32;102696.75;;;20.39;100.00
25430;BME280;13360;48.152;-1.788;2022-08-16T07:01:01;102701.34;;;20.35;100.00
25430;BME280;13360;48.152;-1.788;2022-08-16T07:03:28;102707.59;;;20.32;100.00
25430;BME280;13360;48.152;-1.788;2022-08-16T07:05:53;102720.59;;;20.28;100.00
25430;BME280;13360;48.152;-1.788;2022-08-16T07:08:21;102751.34;;;20.33;100.00
25430;BME280;13360;48.152;-1.788;2022-08-16T07:10:48;102792.31;;;20.48;100.00
25430;BME280;13360;48.152;-1.788;2022-08-16T07:13:14;102800.31;;;20.54;100.00
25430;BME280;13360;48.152;-1.788;2022-08-16T07:15:39;102807.19;;;20.48;100.00
25430;BME280;13360;48.152;-1.788;2022-08-16T07:18:06;102812.81;;;20.48;100.00
25430;BME280;13360;48.152;-1.788;2022-08-16T07:20:31;102829.22;;;20.55;100.00
25430;BME280;13360;48.152;-1.788;2022-08-16T07:22:57;102835.03;;;20.58;100.00
25430;BME280;13360;48.152;-1.788;2022-08-16T07:25:22;102836.38;;;20.61;100.00
25430;BME280;13360;48.152;-1.788;2022-08-16T07:27:48;102841.69;;;20.62;100.00
25430;BME280;13360;48.152;-1.788;2022-08-16T07:30:15;102843.13;;;20.60;100.00
25430;BME280;13360;48.152;-1.788;2022-08-16T07:32:41;102850.63;;;20.51;100.00
25430;BME280;13360;48.152;-1.788;2022-08-16T07:35:07;102865.38;;;20.56;100.00
25430;BME280;13360;48.152;-1.788;2022-08-16T07:37:32;102866.34;;;20.52;100.00
25430;BME280;13360;48.152;-1.788;2022-08-16T07:39:57;102863.84;;;20.50;100.00
25430;BME280;13360;48.152;-1.788;2022-08-16T07:42:23;102883.59;;;20.59;100.00
25430;BME280;13360;48.152;-1.788;2022-08-16T07:44:48;102866.22;;;20.57;100.00
25430;BME280;13360;48.152;-1.788;2022-08-16T07:47:15;102895.88;;;20.63;100.00
25430;BME280;13360;48.152;-1.788;2022-08-16T07:49:40;102910.31;;;20.70;100.00
25430;BME280;13360;48.152;-1.788;2022-08-16T07:52:05;102899.50;;;20.63;100.00
25430;BME280;13360;48.152;-1.788;2022-08-16T07:54:31;102883.25;;;20.60;100.00
25430;BME280;13360;48.152;-1.788;2022-08-16T07:56:56;102857.72;;;20.62;100.00
25430;BME280;13360;48.152;-1.788;2022-08-16T07:59:22;102828.78;;;20.61;100.00
25430;BME280;13360;48.152;-1.788;2022-08-16T08:01:49;102824.84;;;20.62;100.00
25430;BME280;13360;48.152;-1.788;2022-08-16T08:04:16;102779.75;;;20.45;100.00
25430;BME280;13360;48.152;-1.788;2022-08-16T08:06:41;102749.50;;;20.42;100.00
25430;BME280;13360;48.152;-1.788;2022-08-16T08:09:07;102754.38;;;20.50;100.00
25430;BME280;13360;48.152;-1.788;2022-08-16T08:11:32;102736.88;;;20.53;100.00
25430;BME280;13360;48.152;-1.788;2022-08-16T08:13:59;102695.09;;;20.52;100.00
25430;BME280;13360;48.152;-1.788;2022-08-16T08:16:25;102643.22;;;20.49;100.00
25430;BME280;13360;48.152;-1.788;2022-08-16T08:18:50;102594.38;;;20.50;100.00
25430;BME280;13360;48.152;-1.788;2022-08-16T08:21:20;102564.50;;;20.54;100.00
25430;BME280;13360;48.152;-1.788;2022-08-16T08:23:45;102496.69;;;20.38;100.00
25430;BME280;13360;48.152;-1.788;2022-08-16T08:26:13;102458.88;;;20.36;100.00
25430;BME280;13360;48.152;-1.788;2022-08-16T08:28:38;102467.22;;;20.50;100.00
25430;BME280;13360;48.152;-1.788;2022-08-16T08:31:04;102493.34;;;20.59;100.00
25430;BME280;13360;48.152;-1.788;2022-08-16T08:33:30;102497.78;;;20.51;100.00
25430;BME280;13360;48.152;-1.788;2022-08-16T08:35:58;102538.25;;;20.59;100.00
25430;BME280;13360;48.152;-1.788;2022-08-16T08:38:24;102512.97;;;20.50;100.00
25430;BME280;13360;48.152;-1.788;2022-08-16T08:40:50;102542.22;;;20.58;100.00
25430;BME280;13360;48.152;-1.788;2022-08-16T08:43:15;102520.38;;;20.46;100.00
25430;BME280;13360;48.152;-1.788;2022-08-16T08:45:42;102505.91;;;20.39;100.00
25430;BME280;13360;48.152;-1.788;2022-08-16T08:48:07;102563.41;;;20.64;100.00
25430;BME280;13360;48.152;-1.788;2022-08-16T08:50:33;102573.28;;;20.84;100.00
25430;BME280;13360;48.152;-1.788;2022-08-16T08:52:58;102553.81;;;20.96;100.00
25430;BME280;13360;48.152;-1.788;2022-08-16T08:55:25;102502.59;;;20.99;100.00
25430;BME280;13360;48.152;-1.788;2022-08-16T08:57:52;102453.59;;;21.14;100.00
25430;BME280;13360;48.152;-1.788;2022-08-16T09:00:20;102452.00;;;21.56;100.00
25430;BME280;13360;48.152;-1.788;2022-08-16T09:02:48;102451.84;;;22.13;100.00
25430;BME280;13360;48.152;-1.788;2022-08-16T09:05:14;102302.25;;;21.94;100.00
25430;BME280;13360;48.152;-1.788;2022-08-16T09:07:39;102260.78;;;22.20;100.00
25430;BME280;13360;48.152;-1.788;2022-08-16T09:10:06;102160.97;;;22.17;100.00
25430;BME280;13360;48.152;-1.788;2022-08-16T09:12:33;102171.69;;;22.87;100.00
25430;BME280;13360;48.152;-1.788;2022-08-16T09:14:58;102137.09;;;23.56;100.00
25430;BME280;13360;48.152;-1.788;2022-08-16T09:17:25;101954.41;;;23.61;100.00
25430;BME280;13360;48.152;-1.788;2022-08-16T09:19:50;101909.38;;;23.93;100.00
25430;BME280;13360;48.152;-1.788;2022-08-16T09:22:16;101876.63;;;24.32;100.00
25430;BME280;13360;48.152;-1.788;2022-08-16T09:24:43;101785.97;;;24.53;100.00
25430;BME280;13360;48.152;-1.788;2022-08-16T09:27:08;101647.13;;;24.86;100.00
25430;BME280;13360;48.152;-1.788;2022-08-16T09:29:34;101498.09;;;25.02;100.00
25430;BME280;13360;48.152;-1.788;2022-08-16T09:31:59;101388.97;;;24.98;100.00
25430;BME280;13360;48.152;-1.788;2022-08-16T09:34:25;101368.72;;;24.92;100.00
25430;BME280;13360;48.152;-1.788;2022-08-16T09:36:50;101475.00;;;25.72;100.00
25430;BME280;13360;48.152;-1.788;2022-08-16T09:39:15;101386.78;;;25.67;100.00
25430;BME280;13360;48.152;-1.788;2022-08-16T09:41:45;101343.50;;;25.63;100.00
25430;BME280;13360;48.152;-1.788;2022-08-16T09:44:17;101335.66;;;26.16;100.00
25430;BME280;13360;48.152;-1.788;2022-08-16T09:46:45;101185.63;;;25.72;100.00
25430;BME280;13360;48.152;-1.788;2022-08-16T09:49:10;101141.63;;;26.26;100.00
25430;BME280;13360;48.152;-1.788;2022-08-16T09:51:35;101154.41;;;26.64;100.00
25430;BME280;13360;48.152;-1.788;2022-08-16T09:54:03;101134.72;;;26.92;100.00
25430;BME280;13360;48.152;-1.788;2022-08-16T09:56:31;101107.28;;;27.25;100.00
25430;BME280;13360;48.152;-1.788;2022-08-16T09:58:59;101053.88;;;27.73;100.00
25430;BME280;13360;48.152;-1.788;2022-08-16T10:01:24;101034.31;;;28.25;100.00
25430;BME280;13360;48.152;-1.788;2022-08-16T10:03:51;100843.50;;;27.71;100.00
25430;BME280;13360;48.152;-1.788;2022-08-16T10:06:19;100798.53;;;27.62;100.00
25430;BME280;13360;48.152;-1.788;2022-08-16T10:08:46;100867.19;;;28.20;100.00
25430;BME280;13360;48.152;-1.788;2022-08-16T10:11:11;100813.91;;;28.45;100.00
25430;BME280;13360;48.152;-1.788;2022-08-16T10:13:55;100768.09;;;28.40;100.00
25430;BME280;13360;48.152;-1.788;2022-08-16T10:16:20;100734.97;;;27.46;100.00
25430;BME280;13360;48.152;-1.788;2022-08-16T10:18:46;100721.41;;;26.62;100.00
25430;BME280;13360;48.152;-1.788;2022-08-16T10:21:11;100715.34;;;26.18;100.00
25430;BME280;13360;48.152;-1.788;2022-08-16T10:23:40;100708.78;;;25.64;100.00
25430;BME280;13360;48.152;-1.788;2022-08-16T10:26:05;100776.63;;;25.64;100.00
25430;BME280;13360;48.152;-1.788;2022-08-16T10:28:31;100790.38;;;25.65;100.00
25430;BME280;13360;48.152;-1.788;2022-08-16T10:30:58;100759.94;;;25.37;100.00
25430;BME280;13360;48.152;-1.788;2022-08-16T10:33:24;100729.81;;;24.93;100.00
25430;BME280;13360;48.152;-1.788;2022-08-16T10:35:51;100743.16;;;24.97;100.00
25430;BME280;13360;48.152;-1.788;2022-08-16T10:38:16;100736.81;;;25.07;100.00
25430;BME280;13360;48.152;-1.788;2022-08-16T10:40:42;100700.38;;;24.94;100.00
25430;BME280;13360;48.152;-1.788;2022-08-16T10:43:07;100697.09;;;24.85;100.00
25430;BME280;13360;48.152;-1.788;2022-08-16T10:45:34;100676.09;;;24.79;100.00
25430;BME280;13360;48.152;-1.788;2022-08-16T10:48:00;100700.34;;;24.87;100.00
25430;BME280;13360;48.152;-1.788;2022-08-16T10:50:26;100699.22;;;24.99;100.00
25430;BME280;13360;48.152;-1.788;2022-08-16T10:52:52;100731.16;;;25.07;100.00
25430;BME280;13360;48.152;-1.788;2022-08-16T10:55:21;100744.50;;;25.13;100.00
25430;BME280;13360;48.152;-1.788;2022-08-16T10:57:47;100714.22;;;25.17;100.00
25430;BME280;13360;48.152;-1.788;2022-08-16T11:00:15;100750.63;;;25.26;100.00
25430;BME280;13360;48.152;-1.788;2022-08-16T11:02:41;100790.94;;;25.19;100.00
25430;BME280;13360;48.152;-1.788;2022-08-16T11:05:11;100716.47;;;24.83;100.00
25430;BME280;13360;48.152;-1.788;2022-08-16T11:07:43;100733.34;;;24.76;100.00
25430;BME280;13360;48.152;-1.788;2022-08-16T11:10:10;100713.13;;;24.67;100.00
25430;BME280;13360;48.152;-1.788;2022-08-16T11:12:36;100768.97;;;24.91;100.00
25430;BME280;13360;48.152;-1.788;2022-08-16T11:15:02;100718.38;;;24.72;100.00
25430;BME280;13360;48.152;-1.788;2022-08-16T11:17:27;100718.09;;;24.91;100.00
25430;BME280;13360;48.152;-1.788;2022-08-16T11:19:53;100703.97;;;24.84;100.00
25430;BME280;13360;48.152;-1.788;2022-08-16T11:22:18;100733.72;;;24.75;100.00
25430;BME280;13360;48.152;-1.788;2022-08-16T11:24:44;100736.16;;;24.76;100.00
25430;BME280;13360;48.152;-1.788;2022-08-16T11:27:14;100697.66;;;24.47;100.00
25430;BME280;13360;48.152;-1.788;2022-08-16T11:29:39;100747.41;;;24.21;100.00
25430;BME280;13360;48.152;-1.788;2022-08-16T11:32:05;100766.88;;;24.33;100.00
25430;BME280;13360;48.152;-1.788;2022-08-16T11:34:30;100753.69;;;24.45;100.00
25430;BME280;13360;48.152;-1.788;2022-08-16T11:36:58;100778.78;;;24.57;100.00
25430;BME280;13360;48.152;-1.788;2022-08-16T11:39:23;100734.03;;;24.15;100.00
25430;BME280;13360;48.152;-1.788;2022-08-16T11:41:49;100768.78;;;24.22;100.00
25430;BME280;13360;48.152;-1.788;2022-08-16T11:44:14;100793.69;;;24.54;100.00
25430;BME280;13360;48.152;-1.788;2022-08-16T11:46:39;100726.72;;;24.51;100.00
25430;BME280;13360;48.152;-1.788;2022-08-16T11:49:05;100716.94;;;24.38;100.00
25430;BME280;13360;48.152;-1.788;2022-08-16T11:51:30;100707.91;;;24.21;100.00
25430;BME280;13360;48.152;-1.788;2022-08-16T11:53:56;100753.16;;;24.28;100.00
25430;BME280;13360;48.152;-1.788;2022-08-16T11:56:22;100764.56;;;24.43;100.00
25430;BME280;13360;48.152;-1.788;2022-08-16T11:58:48;100756.50;;;24.41;100.00
25430;BME280;13360;48.152;-1.788;2022-08-16T12:01:13;100716.69;;;24.13;100.00
25430;BME280;13360;48.152;-1.788;2022-08-16T12:03:39;100742.34;;;24.38;100.00
25430;BME280;13360;48.152;-1.788;2022-08-16T12:06:12;100719.78;;;24.41;100.00
25430;BME280;13360;48.152;-1.788;2022-08-16T12:08:39;100755.75;;;24.51;100.00
25430;BME280;13360;48.152;-1.788;2022-08-16T12:11:06;100716.31;;;24.62;100.00
25430;BME280;13360;48.152;-1.788;2022-08-16T12:13:31;100700.47;;;24.47;100.00
25430;BME280;13360;48.152;-1.788;2022-08-16T12:15:57;100721.91;;;24.55;100.00
25430;BME280;13360;48.152;-1.788;2022-08-16T12:18:23;100697.22;;;24.41;100.00
25430;BME280;13360;48.152;-1.788;2022-08-16T12:20:48;100702.47;;;24.43;100.00
25430;BME280;13360;48.152;-1.788;2022-08-16T12:23:14;100693.22;;;24.49;100.00
25430;BME280;13360;48.152;-1.788;2022-08-16T12:25:40;100667.72;;;24.35;100.00
25430;BME280;13360;48.152;-1.788;2022-08-16T12:28:07;100661.16;;;24.24;100.00
25430;BME280;13360;48.152;-1.788;2022-08-16T12:30:36;100686.31;;;24.40;100.00
25430;BME280;13360;48.152;-1.788;2022-08-16T12:33:03;100645.25;;;24.49;100.00
25430;BME280;13360;48.152;-1.788;2022-08-16T12:35:30;100625.03;;;24.44;100.00